Time;durP1;ratioP1;P1;durP2;ratioP2;P2;SDS_P1;SDS_P2;PMS_P1;PMS_P2;Temp;Humidity;BMP_temperature;BMP_pressure;BME280_temperature;BME280_humidity;BME280_pressure;Samples;Min_cycle;Max_cycle;Signal;HPM_P1;HPM_P2
2023/10/14 00:01:04;;;;;;;1.13;1.00;;;16.20;99.90;;;;;;5080735;28;20695;-48
2023/10/14 00:03:33;;;;;;;1.53;0.60;;;15.70;99.90;;;;;;5084494;28;20208;-49
2023/10/14 00:06:05;;;;;;;0.70;0.67;;;15.10;99.90;;;;;;5058091;28;20202;-43
2023/10/14 00:08:33;;;;;;;1.77;0.50;;;14.90;99.90;;;;;;5083992;28;20568;-49
2023/10/14 00:11:02;;;;;;;1.57;0.40;;;14.60;99.90;;;;;;5088764;28;20279;-43
2023/10/14 00:13:34;;;;;;;1.03;0.50;;;14.50;99.90;;;;;;5072238;28;20206;-50
2023/10/14 00:16:08;;;;;;;1.03;0.60;;;14.40;99.90;;;;;;5089943;28;20682;-48
2023/10/14 00:18:35;;;;;;;0.77;0.50;;;14.30;99.90;;;;;;5086852;28;20202;-50
2023/10/14 00:21:04;;;;;;;1.87;0.57;;;14.20;99.90;;;;;;5057141;28;20254;-47
2023/10/14 00:23:32;;;;;;;0.77;0.57;;;14.10;99.90;;;;;;5082980;28;20251;-50
2023/10/14 00:26:00;;;;;;;1.33;0.50;;;14.00;99.90;;;;;;5087657;28;20190;-46
2023/10/14 00:28:28;;;;;;;1.07;0.40;;;14.00;99.90;;;;;;5073623;28;20198;-50
2023/10/14 00:30:56;;;;;;;1.23;0.50;;;13.90;99.90;;;;;;5064397;28;20730;-48
2023/10/14 00:33:24;;;;;;;2.97;0.50;;;13.90;99.90;;;;;;5063336;28;20280;-49
2023/10/14 00:35:55;;;;;;;6.10;0.60;;;13.90;99.90;;;;;;5051789;28;20241;-44
2023/10/14 00:38:24;;;;;;;0.53;0.40;;;13.90;99.90;;;;;;5071179;28;20614;-48
2023/10/14 00:40:51;;;;;;;0.87;0.63;;;13.80;99.90;;;;;;5083338;28;20241;-51
2023/10/14 00:43:20;;;;;;;2.57;0.63;;;13.80;99.90;;;;;;5054191;28;20665;-51
2023/10/14 00:45:48;;;;;;;2.40;0.70;;;13.80;99.90;;;;;;5072069;28;20194;-44
2023/10/14 00:48:19;;;;;;;1.80;0.87;;;13.80;99.90;;;;;;5076258;28;20202;-47
2023/10/14 00:50:46;;;;;;;0.90;0.77;;;13.80;99.90;;;;;;5057192;28;20298;-47
2023/10/14 00:53:15;;;;;;;3.27;0.60;;;13.70;99.90;;;;;;5089098;28;20190;-44
2023/10/14 00:55:52;;;;;;;1.70;0.73;;;13.70;99.90;;;;;;5066086;28;20205;-45
2023/10/14 00:58:23;;;;;;;3.43;1.30;;;13.80;99.90;;;;;;5087082;28;20201;-50
2023/10/14 01:01:00;;;;;;;1.77;0.70;;;13.80;99.90;;;;;;5059172;28;20279;-45
2023/10/14 01:03:30;;;;;;;5.30;0.60;;;13.80;99.90;;;;;;5066278;28;20194;-51
2023/10/14 01:05:57;;;;;;;1.90;0.60;;;13.80;99.90;;;;;;5055361;28;20272;-46
2023/10/14 01:08:25;;;;;;;3.07;0.80;;;13.80;99.90;;;;;;5084200;28;20273;-49
2023/10/14 01:10:53;;;;;;;3.63;0.80;;;13.70;99.90;;;;;;5082426;28;20210;-45
2023/10/14 01:13:22;;;;;;;3.13;0.70;;;13.70;99.90;;;;;;5077966;28;20231;-53
2023/10/14 01:15:57;;;;;;;4.00;0.80;;;13.70;99.90;;;;;;5075109;28;20215;-49
2023/10/14 01:18:23;;;;;;;3.13;0.83;;;13.70;99.90;;;;;;5081103;28;20620;-46
2023/10/14 01:20:50;;;;;;;3.40;1.17;;;13.80;99.90;;;;;;5059027;28;20228;-46
2023/10/14 01:23:18;;;;;;;2.00;0.70;;;13.80;99.90;;;;;;5034327;28;20707;-48
2023/10/14 01:25:50;;;;;;;3.07;0.63;;;13.80;99.90;;;;;;5062893;28;20224;-44
2023/10/14 01:28:22;;;;;;;3.33;0.80;;;13.80;99.90;;;;;;5082631;28;20192;-49
2023/10/14 01:31:10;;;;;;;4.20;1.23;;;13.80;99.90;;;;;;5071590;28;20213;-50
2023/10/14 01:33:37;;;;;;;4.17;1.70;;;13.80;99.90;;;;;;5057357;28;20218;-48
2023/10/14 01:36:08;;;;;;;2.47;1.10;;;13.70;99.90;;;;;;5067247;28;20279;-44
2023/10/14 01:38:37;;;;;;;6.63;1.47;;;13.80;99.90;;;;;;5026328;28;20293;-51
2023/10/14 01:41:05;;;;;;;4.50;1.50;;;13.80;99.90;;;;;;5083492;28;20632;-44
2023/10/14 01:43:32;;;;;;;2.60;1.10;;;13.80;99.90;;;;;;5069764;28;20288;-49
2023/10/14 01:46:08;;;;;;;4.37;1.20;;;13.80;99.90;;;;;;5055689;28;20212;-46
2023/10/14 01:48:38;;;;;;;5.43;1.10;;;13.70;99.90;;;;;;5064662;28;20201;-50
2023/10/14 01:51:06;;;;;;;6.20;0.90;;;13.80;99.90;;;;;;5081742;28;20622;-44
2023/10/14 01:53:34;;;;;;;6.53;1.40;;;13.80;99.90;;;;;;5035564;28;20685;-50
2023/10/14 01:56:03;;;;;;;2.77;0.90;;;13.80;99.90;;;;;;5067209;28;20201;-46
2023/10/14 01:58:32;;;;;;;6.13;1.00;;;13.80;99.90;;;;;;5059634;28;20209;-50
2023/10/14 02:01:07;;;;;;;3.23;0.87;;;13.70;99.90;;;;;;5076427;28;20226;-46
2023/10/14 02:03:41;;;;;;;4.87;1.10;;;13.70;99.90;;;;;;5086082;28;20208;-50
2023/10/14 02:06:13;;;;;;;5.30;1.30;;;13.70;99.90;;;;;;5086682;28;20186;-44
2023/10/14 02:08:40;;;;;;;6.57;1.50;;;13.70;99.90;;;;;;5051268;28;25994;-46
2023/10/14 02:11:09;;;;;;;3.80;1.23;;;13.70;99.90;;;;;;5082699;28;20267;-46
2023/10/14 02:13:36;;;;;;;5.43;1.03;;;13.60;99.90;;;;;;5065547;28;20201;-47
2023/10/14 02:16:07;;;;;;;4.30;1.23;;;13.70;99.90;;;;;;5069041;28;20255;-45
2023/10/14 02:18:36;;;;;;;6.73;1.00;;;13.70;99.90;;;;;;5059398;28;20599;-47
2023/10/14 02:21:11;;;;;;;4.43;0.80;;;13.60;99.90;;;;;;5067773;28;20245;-46
2023/10/14 02:23:45;;;;;;;8.47;1.17;;;13.50;99.90;;;;;;5053822;28;25374;-44
2023/10/14 02:26:16;;;;;;;5.43;1.20;;;13.50;99.90;;;;;;5083836;28;20208;-44
2023/10/14 02:28:46;;;;;;;5.30;0.80;;;13.40;99.90;;;;;;5071477;28;20205;-45
2023/10/14 02:31:17;;;;;;;5.47;1.77;;;13.50;99.90;;;;;;5088458;28;20213;-46
2023/10/14 02:33:48;;;;;;;5.80;1.10;;;13.40;99.90;;;;;;5069535;28;20194;-48
2023/10/14 02:36:15;;;;;;;8.03;1.00;;;13.40;99.90;;;;;;5088627;28;20194;-46
2023/10/14 02:38:46;;;;;;;4.37;1.00;;;13.30;99.90;;;;;;5084970;28;20300;-44
2023/10/14 02:41:16;;;;;;;4.30;1.30;;;13.30;99.90;;;;;;5056687;28;20703;-44
2023/10/14 02:43:48;;;;;;;8.77;1.40;;;13.20;99.90;;;;;;5064562;28;20213;-44
2023/10/14 02:46:20;;;;;;;2.63;0.77;;;13.10;99.90;;;;;;5085890;28;20204;-49
2023/10/14 02:48:53;;;;;;;2.20;0.73;;;13.00;99.90;;;;;;5070711;28;20276;-44
2023/10/14 02:51:29;;;;;;;3.03;0.77;;;13.00;99.90;;;;;;5088804;28;20518;-48
2023/10/14 02:54:02;;;;;;;5.70;0.90;;;12.90;99.90;;;;;;5085798;28;20206;-47
2023/10/14 02:56:44;;;;;;;3.30;0.90;;;12.80;99.90;;;;;;5051817;28;20229;-52
2023/10/14 02:59:15;;;;;;;1.20;0.93;;;12.70;99.90;;;;;;5067698;28;20296;-44
2023/10/14 03:01:50;;;;;;;3.33;0.80;;;12.70;99.90;;;;;;5065641;28;20226;-44
2023/10/14 03:04:23;;;;;;;2.10;0.70;;;12.70;99.90;;;;;;5075949;28;20202;-49
2023/10/14 03:06:55;;;;;;;2.10;1.00;;;12.60;99.90;;;;;;5082767;28;20193;-51
2023/10/14 03:09:32;;;;;;;3.37;1.20;;;12.60;99.90;;;;;;5084734;28;20202;-51
2023/10/14 03:12:01;;;;;;;5.50;1.07;;;12.60;99.90;;;;;;5039184;28;20197;-44
2023/10/14 03:14:29;;;;;;;3.00;1.00;;;12.50;99.90;;;;;;5084121;28;20190;-53
2023/10/14 03:16:57;;;;;;;4.03;1.20;;;12.60;99.90;;;;;;5087385;28;20263;-48
2023/10/14 03:19:25;;;;;;;5.27;0.90;;;12.60;99.90;;;;;;5076086;28;20576;-50
2023/10/14 03:21:59;;;;;;;3.00;1.43;;;12.60;99.90;;;;;;5089119;28;20209;-46
2023/10/14 03:24:30;;;;;;;2.87;0.80;;;12.50;99.90;;;;;;5069461;28;20190;-48
2023/10/14 03:27:03;;;;;;;3.03;0.80;;;12.50;99.90;;;;;;5056962;28;20290;-48
2023/10/14 03:29:31;;;;;;;5.63;0.90;;;12.50;99.90;;;;;;5077884;28;20247;-48
2023/10/14 03:31:58;;;;;;;3.40;0.50;;;12.50;99.90;;;;;;5067262;28;20218;-46
2023/10/14 03:34:30;;;;;;;2.40;0.80;;;12.40;99.90;;;;;;5077113;28;20206;-48
2023/10/14 03:37:01;;;;;;;5.43;1.07;;;12.50;99.90;;;;;;5089226;28;20288;-50
2023/10/14 03:39:40;;;;;;;7.43;1.30;;;12.50;99.90;;;;;;5085111;28;20271;-49
2023/10/14 03:42:11;;;;;;;2.73;0.93;;;12.40;99.90;;;;;;5087184;28;20217;-46
2023/10/14 03:44:42;;;;;;;6.93;0.90;;;12.40;99.90;;;;;;5051285;28;20263;-46
2023/10/14 03:47:15;;;;;;;3.50;1.10;;;12.40;99.90;;;;;;5087251;28;20221;-46
2023/10/14 03:49:44;;;;;;;5.23;1.07;;;12.30;99.90;;;;;;5072599;28;21958;-46
2023/10/14 03:52:12;;;;;;;3.53;1.17;;;12.30;99.90;;;;;;5085093;28;20225;-46
2023/10/14 03:54:42;;;;;;;5.17;1.23;;;12.30;99.90;;;;;;5083334;28;20274;-47
2023/10/14 03:57:19;;;;;;;4.10;0.97;;;12.20;99.90;;;;;;5090327;28;20221;-49
2023/10/14 03:59:48;;;;;;;7.27;1.00;;;12.20;99.90;;;;;;5055641;28;20204;-49
2023/10/14 04:02:20;;;;;;;7.00;1.30;;;12.10;99.90;;;;;;5091924;28;20612;-48
2023/10/14 04:04:47;;;;;;;6.47;1.40;;;12.10;99.90;;;;;;5079438;28;20206;-47
2023/10/14 04:07:15;;;;;;;3.17;0.97;;;12.10;99.90;;;;;;5091771;28;20309;-46
2023/10/14 04:09:46;;;;;;;4.80;1.27;;;12.00;99.90;;;;;;5071660;28;20243;-45
2023/10/14 04:12:29;;;;;;;6.20;2.03;;;12.00;99.90;;;;;;5092080;28;20186;-47
2023/10/14 04:15:05;;;;;;;6.50;1.20;;;12.00;99.90;;;;;;5062449;28;20825;-49
2023/10/14 04:17:32;;;;;;;8.07;1.63;;;12.00;99.90;;;;;;5082651;28;20197;-48
2023/10/14 04:20:14;;;;;;;7.73;1.20;;;11.90;99.90;;;;;;5078207;28;20214;-46
2023/10/14 04:22:42;;;;;;;3.67;1.10;;;11.90;99.90;;;;;;5085119;28;20961;-45
2023/10/14 04:25:22;;;;;;;11.50;1.70;;;11.90;99.90;;;;;;5087545;28;20194;-46
2023/10/14 04:30:42;;;;;;;7.90;1.13;;;11.90;99.90;;;;;;5055469;28;20695;-46
2023/10/14 04:33:18;;;;;;;3.30;0.73;;;11.80;99.90;;;;;;5082287;28;20194;-46
2023/10/14 04:35:58;;;;;;;7.20;1.33;;;11.80;99.90;;;;;;5072114;28;20988;-47
2023/10/14 04:38:37;;;;;;;7.30;1.50;;;11.80;99.90;;;;;;5078064;28;20205;-50
2023/10/14 04:41:05;;;;;;;3.50;1.07;;;11.80;99.90;;;;;;5086152;28;20602;-46
2023/10/14 04:46:21;;;;;;;4.60;1.30;;;11.70;99.90;;;;;;5053137;28;20198;-46
2023/10/14 04:48:58;;;;;;;9.07;1.50;;;11.70;99.90;;;;;;5084410;28;20287;-47
2023/10/14 04:51:34;;;;;;;8.80;1.20;;;11.70;99.90;;;;;;5071404;28;20213;-48
2023/10/14 04:54:01;;;;;;;6.87;1.60;;;11.60;99.90;;;;;;5087738;28;20672;-47
2023/10/14 04:56:30;;;;;;;8.13;1.97;;;11.60;99.90;;;;;;5079219;28;20208;-48
2023/10/14 04:58:57;;;;;;;7.27;1.37;;;11.60;99.90;;;;;;5067089;28;20202;-45
2023/10/14 05:01:27;;;;;;;5.27;1.03;;;11.60;99.90;;;;;;5070247;28;20218;-50
2023/10/14 05:03:57;;;;;;;6.20;0.93;;;11.60;99.90;;;;;;5057477;28;20786;-44
2023/10/14 05:06:29;;;;;;;7.73;2.10;;;11.60;99.90;;;;;;5078133;28;20198;-50
2023/10/14 05:08:56;;;;;;;5.10;1.00;;;11.50;99.90;;;;;;5079513;28;20206;-46
2023/10/14 05:11:26;;;;;;;4.90;1.20;;;11.50;99.90;;;;;;5086432;28;20219;-50
2023/10/14 05:14:07;;;;;;;5.00;1.67;;;11.50;99.90;;;;;;5090667;28;20210;-43
2023/10/14 05:16:51;;;;;;;5.30;1.10;;;11.50;99.90;;;;;;5084847;28;20292;-50
2023/10/14 05:19:23;;;;;;;6.17;1.60;;;11.50;99.90;;;;;;5057531;28;20704;-51
2023/10/14 05:21:56;;;;;;;4.43;1.30;;;11.60;99.90;;;;;;5075110;28;22509;-43
2023/10/14 05:24:28;;;;;;;5.80;1.53;;;11.60;99.90;;;;;;5086638;28;20218;-47
2023/10/14 05:26:59;;;;;;;7.23;1.10;;;11.60;99.90;;;;;;5087100;28;20914;-44
2023/10/14 05:29:27;;;;;;;5.83;1.43;;;11.60;99.90;;;;;;5083787;28;20215;-52
2023/10/14 05:32:04;;;;;;;10.57;1.60;;;11.60;99.90;;;;;;5086967;28;20173;-44
2023/10/14 05:34:32;;;;;;;10.33;1.70;;;11.50;99.90;;;;;;5053029;28;20631;-48
2023/10/14 05:37:00;;;;;;;6.97;0.90;;;11.50;99.90;;;;;;5075413;28;20671;-47
2023/10/14 05:39:28;;;;;;;10.20;1.30;;;11.50;99.90;;;;;;5081358;28;20247;-50
2023/10/14 05:41:59;;;;;;;5.63;0.97;;;11.40;99.90;;;;;;5088387;28;20344;-44
2023/10/14 05:44:27;;;;;;;6.93;1.43;;;11.40;99.90;;;;;;5082078;28;20206;-49
2023/10/14 05:46:56;;;;;;;4.63;1.27;;;11.40;99.90;;;;;;5083406;28;20558;-47
2023/10/14 05:49:24;;;;;;;7.60;1.87;;;11.40;99.90;;;;;;5054520;28;20255;-48
2023/10/14 05:51:52;;;;;;;4.60;1.07;;;11.30;99.90;;;;;;5080907;28;20218;-47
2023/10/14 05:54:19;;;;;;;9.37;3.30;;;11.30;99.90;;;;;;5079747;28;20557;-50
2023/10/14 05:56:45;;;;;;;9.13;1.80;;;11.30;99.90;;;;;;5078970;28;20190;-44
2023/10/14 05:59:15;;;;;;;4.33;1.00;;;11.30;99.90;;;;;;5070903;28;20283;-53
2023/10/14 06:01:45;;;;;;;7.70;1.63;;;11.30;99.90;;;;;;5083778;28;20214;-47
2023/10/14 06:04:14;;;;;;;7.77;1.57;;;11.30;99.90;;;;;;5072621;28;20201;-50
2023/10/14 06:06:41;;;;;;;5.07;1.20;;;11.40;99.90;;;;;;5074927;28;20251;-44
2023/10/14 06:09:10;;;;;;;5.60;1.20;;;11.40;99.90;;;;;;5074426;28;20243;-48
2023/10/14 06:11:37;;;;;;;8.13;2.03;;;11.40;99.90;;;;;;5069956;28;20356;-47
2023/10/14 06:14:05;;;;;;;5.77;1.30;;;11.40;99.90;;;;;;5084503;28;20194;-44
2023/10/14 06:16:33;;;;;;;7.17;1.60;;;11.40;99.90;;;;;;5067056;28;20225;-49
2023/10/14 06:19:00;;;;;;;7.53;1.50;;;11.40;99.90;;;;;;5084395;28;20255;-44
2023/10/14 06:21:28;;;;;;;5.97;1.70;;;11.40;99.90;;;;;;5053799;28;20220;-44
2023/10/14 06:23:55;;;;;;;5.33;1.57;;;11.30;99.90;;;;;;5078162;28;20198;-46
2023/10/14 06:26:22;;;;;;;11.57;1.80;;;11.30;99.90;;;;;;5093370;28;20192;-52
2023/10/14 06:28:55;;;;;;;6.77;1.70;;;11.30;99.90;;;;;;5087631;28;20229;-45
2023/10/14 06:31:23;;;;;;;8.27;2.30;;;11.30;99.90;;;;;;5086596;28;20304;-50
2023/10/14 06:33:49;;;;;;;5.67;1.87;;;11.30;99.90;;;;;;5080985;28;20214;-49
2023/10/14 06:36:17;;;;;;;7.70;1.53;;;11.30;99.90;;;;;;5056553;28;20247;-47
2023/10/14 06:38:45;;;;;;;7.83;1.70;;;11.30;99.90;;;;;;5087207;28;20194;-46
2023/10/14 06:41:16;;;;;;;8.10;1.40;;;11.30;99.90;;;;;;5079968;28;20661;-50
2023/10/14 06:43:47;;;;;;;8.80;1.87;;;11.30;99.90;;;;;;5086708;28;20252;-44
2023/10/14 06:46:16;;;;;;;8.43;1.50;;;11.40;99.90;;;;;;5089110;28;20194;-49
2023/10/14 06:48:43;;;;;;;8.50;1.70;;;11.40;99.90;;;;;;5079248;28;20237;-44
2023/10/14 06:51:09;;;;;;;5.00;1.40;;;11.50;99.90;;;;;;5083883;28;20270;-48
2023/10/14 06:53:39;;;;;;;7.20;1.43;;;11.60;99.90;;;;;;5049432;28;20205;-50
2023/10/14 06:56:11;;;;;;;10.90;1.83;;;11.60;99.90;;;;;;5077627;28;20845;-44
2023/10/14 06:58:39;;;;;;;5.17;1.57;;;11.60;99.90;;;;;;5082383;28;20278;-46
2023/10/14 07:01:07;;;;;;;5.50;0.83;;;11.60;99.90;;;;;;5088967;28;20268;-46
2023/10/14 07:03:34;;;;;;;6.37;2.00;;;11.50;99.90;;;;;;5076191;28;20310;-49
2023/10/14 07:06:04;;;;;;;7.57;1.27;;;11.40;99.90;;;;;;5069969;28;20212;-45
2023/10/14 07:08:32;;;;;;;6.93;1.43;;;11.40;99.90;;;;;;5035446;28;20923;-44
2023/10/14 07:11:00;;;;;;;5.23;1.20;;;11.50;99.90;;;;;;5084500;28;20218;-47
2023/10/14 07:13:28;;;;;;;6.93;1.30;;;11.50;99.90;;;;;;5072714;28;20253;-49
2023/10/14 07:15:55;;;;;;;8.33;2.00;;;11.50;99.90;;;;;;5069730;28;20528;-44
2023/10/14 07:18:23;;;;;;;10.90;1.67;;;11.60;99.90;;;;;;5077519;28;20198;-49
2023/10/14 07:20:57;;;;;;;8.97;1.77;;;11.50;99.90;;;;;;5086632;28;20646;-46
2023/10/14 07:23:24;;;;;;;7.27;1.90;;;11.50;99.90;;;;;;5054431;28;20291;-51
2023/10/14 07:25:52;;;;;;;4.80;1.30;;;11.40;99.90;;;;;;5086820;28;20274;-51
2023/10/14 07:28:19;;;;;;;7.23;1.30;;;11.40;99.90;;;;;;5075390;28;20278;-54
2023/10/14 07:30:48;;;;;;;8.03;1.27;;;11.40;99.90;;;;;;5084260;28;20225;-47
2023/10/14 07:33:16;;;;;;;5.23;1.40;;;11.40;99.90;;;;;;5080773;28;20197;-52
2023/10/14 07:35:43;;;;;;;6.50;1.77;;;11.50;99.90;;;;;;5081032;28;20280;-47
2023/10/14 07:38:10;;;;;;;9.53;2.03;;;11.50;99.90;;;;;;5051466;28;20218;-50
2023/10/14 07:40:38;;;;;;;6.83;2.00;;;11.60;99.90;;;;;;5088555;28;20205;-50
2023/10/14 07:43:07;;;;;;;7.80;1.37;;;11.60;99.90;;;;;;5075242;28;20218;-46
2023/10/14 07:45:36;;;;;;;6.00;1.13;;;11.70;99.90;;;;;;5077709;28;20221;-47
2023/10/14 07:48:08;;;;;;;8.27;1.20;;;11.70;99.90;;;;;;5090707;28;20201;-50
2023/10/14 07:50:37;;;;;;;4.20;1.60;;;11.80;99.90;;;;;;5076571;28;20209;-47
2023/10/14 07:53:08;;;;;;;8.57;1.50;;;11.80;99.90;;;;;;5091504;28;20189;-48
2023/10/14 07:55:36;;;;;;;8.23;1.97;;;11.90;99.90;;;;;;5064109;28;20250;-44
2023/10/14 07:58:05;;;;;;;3.53;1.50;;;12.00;99.90;;;;;;5083587;28;20229;-46
2023/10/14 08:00:39;;;;;;;8.13;1.40;;;12.00;99.90;;;;;;5075921;28;20306;-43
2023/10/14 08:03:14;;;;;;;4.23;1.23;;;12.00;99.90;;;;;;5093231;28;20221;-47
2023/10/14 08:05:42;;;;;;;5.13;1.30;;;12.10;99.90;;;;;;5076821;28;20951;-45
2023/10/14 08:08:10;;;;;;;10.33;1.37;;;12.20;99.90;;;;;;5088827;28;20255;-50
2023/10/14 08:10:41;;;;;;;5.93;1.50;;;12.20;99.90;;;;;;5047747;28;20228;-47
2023/10/14 08:13:08;;;;;;;8.80;1.60;;;12.40;99.90;;;;;;5078367;28;20198;-50
2023/10/14 08:15:36;;;;;;;11.17;1.60;;;12.40;99.90;;;;;;5072746;28;20264;-45
2023/10/14 08:18:04;;;;;;;9.23;2.20;;;12.50;99.90;;;;;;5084620;28;20296;-45
2023/10/14 08:20:33;;;;;;;11.03;1.87;;;12.40;99.90;;;;;;5069694;28;20221;-46
2023/10/14 08:23:00;;;;;;;7.57;1.40;;;12.30;99.90;;;;;;5088329;28;20225;-47
2023/10/14 08:25:28;;;;;;;6.67;1.77;;;12.30;99.90;;;;;;5078606;28;20275;-45
2023/10/14 08:27:57;;;;;;;8.47;1.93;;;12.30;99.90;;;;;;5085443;28;20186;-45
2023/10/14 08:30:25;;;;;;;13.70;1.57;;;12.40;99.90;;;;;;5077084;28;20234;-45
2023/10/14 08:32:53;;;;;;;8.60;1.67;;;12.50;99.90;;;;;;5074877;28;20186;-47
2023/10/14 08:35:27;;;;;;;5.57;1.60;;;12.50;99.90;;;;;;5087840;28;20208;-49
2023/10/14 08:37:57;;;;;;;5.93;1.83;;;12.50;99.90;;;;;;5079633;28;20824;-47
2023/10/14 08:40:26;;;;;;;8.00;1.87;;;12.50;99.90;;;;;;5086625;28;20225;-46
2023/10/14 08:42:56;;;;;;;8.93;1.80;;;12.40;99.90;;;;;;5084178;28;20241;-47
2023/10/14 08:45:25;;;;;;;7.47;1.80;;;12.40;99.90;;;;;;5085690;28;20193;-45
2023/10/14 08:47:54;;;;;;;7.30;1.33;;;12.40;99.90;;;;;;5074620;28;20975;-48
2023/10/14 08:50:23;;;;;;;4.60;1.07;;;12.50;99.90;;;;;;5088414;28;20578;-47
2023/10/14 08:52:53;;;;;;;9.17;1.47;;;12.50;99.90;;;;;;5075890;28;20576;-47
2023/10/14 08:55:22;;;;;;;7.23;1.70;;;12.40;99.90;;;;;;5086590;28;20740;-51
2023/10/14 08:57:50;;;;;;;6.20;1.20;;;12.40;99.90;;;;;;5050122;28;20255;-46
2023/10/14 09:00:23;;;;;;;6.30;1.53;;;12.30;99.90;;;;;;5082194;28;20617;-50
2023/10/14 09:02:53;;;;;;;7.37;1.67;;;12.20;99.90;;;;;;5073893;28;20220;-50
2023/10/14 09:05:20;;;;;;;9.23;1.10;;;12.30;99.90;;;;;;5085543;28;20198;-48
2023/10/14 09:07:49;;;;;;;5.00;1.60;;;12.40;99.90;;;;;;5071528;28;20822;-46
2023/10/14 09:10:18;;;;;;;8.47;1.47;;;12.40;99.90;;;;;;5087132;28;20259;-47
2023/10/14 09:12:59;;;;;;;10.33;1.93;;;12.40;99.90;;;;;;5055542;28;20190;-44
2023/10/14 09:15:28;;;;;;;5.70;1.43;;;12.50;99.90;;;;;;5086463;28;20205;-47
2023/10/14 09:17:56;;;;;;;5.87;1.20;;;12.70;99.90;;;;;;5076361;28;20197;-49
2023/10/14 09:20:31;;;;;;;7.83;1.67;;;12.70;99.90;;;;;;5082769;28;20620;-48
2023/10/14 09:23:15;;;;;;;7.57;1.50;;;12.80;99.90;;;;;;5071713;28;20217;-48
2023/10/14 09:25:43;;;;;;;6.03;1.43;;;12.80;99.90;;;;;;5084911;28;20186;-46
2023/10/14 09:28:12;;;;;;;5.40;1.30;;;12.90;99.90;;;;;;5056194;28;20206;-48
2023/10/14 09:30:44;;;;;;;12.43;2.93;;;13.00;99.90;;;;;;5086106;28;20696;-47
2023/10/14 09:33:15;;;;;;;7.77;1.47;;;13.10;99.90;;;;;;5077536;28;20195;-45
2023/10/14 09:35:45;;;;;;;8.60;1.47;;;13.10;99.90;;;;;;5063444;28;20201;-48
2023/10/14 09:38:14;;;;;;;6.73;1.47;;;13.10;99.90;;;;;;5082533;28;20266;-51
2023/10/14 09:40:43;;;;;;;6.57;1.40;;;13.10;99.90;;;;;;5072420;28;20221;-52
2023/10/14 09:43:12;;;;;;;7.87;1.30;;;13.20;99.90;;;;;;5052007;28;20229;-46
2023/10/14 09:45:44;;;;;;;8.67;1.63;;;13.30;99.90;;;;;;5084073;28;20194;-50
2023/10/14 09:48:12;;;;;;;8.10;2.13;;;13.40;99.90;;;;;;5076651;28;20205;-44
2023/10/14 09:50:40;;;;;;;5.33;1.40;;;13.50;99.90;;;;;;5083175;28;20218;-51
2023/10/14 09:53:07;;;;;;;4.97;1.53;;;13.60;99.90;;;;;;5082969;28;20266;-48
2023/10/14 09:55:36;;;;;;;6.90;1.27;;;13.80;99.90;;;;;;5075206;28;20254;-51
2023/10/14 09:58:05;;;;;;;3.13;0.90;;;14.00;99.90;;;;;;5080770;28;20857;-45
2023/10/14 10:00:34;;;;;;;7.90;1.37;;;13.90;99.90;;;;;;5050712;28;20702;-50
2023/10/14 10:03:04;;;;;;;8.30;1.17;;;13.80;99.90;;;;;;5082661;28;20939;-47
2023/10/14 10:05:39;;;;;;;6.93;1.63;;;13.50;99.90;;;;;;5081634;28;20205;-53
2023/10/14 10:08:32;;;;;;;6.10;1.23;;;13.00;99.90;;;;;;5069344;28;20195;-47
2023/10/14 10:11:00;;;;;;;4.83;1.03;;;12.30;99.90;;;;;;5069482;28;20961;-45
2023/10/14 10:13:29;;;;;;;3.53;1.23;;;11.60;99.90;;;;;;5085474;28;20698;-50
2023/10/14 10:16:04;;;;;;;4.97;0.87;;;10.90;99.90;;;;;;5054577;28;20206;-47
2023/10/14 10:18:49;;;;;;;1.97;0.63;;;10.60;99.90;;;;;;5081269;28;20199;-49
2023/10/14 10:21:18;;;;;;;3.50;0.63;;;10.20;99.90;;;;;;5080931;28;20687;-45
2023/10/14 10:23:45;;;;;;;2.90;0.70;;;10.10;99.90;;;;;;5079338;28;20255;-53
2023/10/14 10:26:14;;;;;;;4.80;0.90;;;10.10;99.90;;;;;;5076016;28;20656;-47
2023/10/14 10:28:41;;;;;;;2.33;0.40;;;10.10;99.90;;;;;;5081469;28;20246;-50
2023/10/14 10:31:14;;;;;;;2.90;0.80;;;10.10;99.90;;;;;;5052074;28;20637;-46
2023/10/14 10:33:56;;;;;;;1.57;0.50;;;10.10;99.90;;;;;;5076992;28;20740;-49
2023/10/14 10:36:25;;;;;;;2.17;0.40;;;10.20;99.90;;;;;;5073690;28;20227;-51
2023/10/14 10:38:54;;;;;;;3.23;0.43;;;10.20;99.90;;;;;;5080216;28;20212;-47
2023/10/14 10:41:27;;;;;;;2.13;0.40;;;10.20;99.90;;;;;;5070285;28;20690;-50
2023/10/14 10:44:00;;;;;;;3.03;0.40;;;10.40;99.90;;;;;;5072142;28;20233;-49
2023/10/14 10:46:44;;;;;;;1.90;1.00;;;10.50;99.90;;;;;;5082257;28;20691;-51
2023/10/14 10:49:13;;;;;;;1.10;0.40;;;10.60;99.90;;;;;;5077547;28;20198;-46
2023/10/14 10:51:51;;;;;;;4.43;0.97;;;10.70;99.90;;;;;;5071686;28;20217;-52
2023/10/14 10:54:22;;;;;;;4.03;1.00;;;10.90;99.90;;;;;;5079185;28;20194;-48
2023/10/14 10:56:49;;;;;;;2.53;0.50;;;11.00;99.90;;;;;;5071146;28;20202;-50
2023/10/14 10:59:15;;;;;;;2.07;0.43;;;11.10;99.90;;;;;;5087283;28;20190;-45
2023/10/14 11:01:46;;;;;;;1.03;0.40;;;11.20;99.90;;;;;;5080165;28;20271;-51
2023/10/14 11:04:14;;;;;;;3.73;0.67;;;11.20;99.90;;;;;;5056413;28;20287;-46
2023/10/14 11:06:41;;;;;;;3.90;0.63;;;11.20;99.90;;;;;;5056419;28;20304;-51
2023/10/14 11:09:12;;;;;;;4.37;0.57;;;11.20;99.90;;;;;;5088765;28;20721;-48
2023/10/14 11:11:39;;;;;;;2.63;0.63;;;11.30;99.90;;;;;;5080068;28;20210;-50
2023/10/14 11:14:17;;;;;;;1.87;0.77;;;11.30;99.90;;;;;;5088159;28;20193;-47
2023/10/14 11:16:52;;;;;;;3.77;0.70;;;11.30;99.90;;;;;;5087111;28;20282;-50
2023/10/14 11:19:20;;;;;;;1.70;0.60;;;11.40;99.90;;;;;;5061011;28;20276;-44
2023/10/14 11:21:47;;;;;;;2.43;0.93;;;11.40;99.90;;;;;;5075188;28;20973;-46
2023/10/14 11:24:16;;;;;;;0.80;0.60;;;11.40;99.90;;;;;;5088233;28;20296;-46
2023/10/14 11:26:44;;;;;;;2.53;0.70;;;11.30;99.90;;;;;;5075796;28;20194;-48
2023/10/14 11:29:11;;;;;;;3.20;0.67;;;11.20;99.90;;;;;;5083928;28;20265;-44
2023/10/14 11:31:39;;;;;;;5.80;0.70;;;11.20;99.90;;;;;;5085589;28;20733;-51
2023/10/14 11:34:11;;;;;;;3.00;0.77;;;10.90;99.90;;;;;;5057868;28;20209;-44
2023/10/14 11:36:42;;;;;;;1.73;0.50;;;10.70;99.90;;;;;;5086089;28;20209;-52
2023/10/14 11:39:13;;;;;;;3.00;0.90;;;10.60;99.90;;;;;;5088184;28;20241;-45
2023/10/14 11:41:40;;;;;;;6.33;1.13;;;10.60;99.90;;;;;;5080082;28;20297;-50
2023/10/14 11:44:07;;;;;;;5.70;0.90;;;10.60;99.90;;;;;;5091850;28;20691;-46
2023/10/14 11:46:38;;;;;;;3.13;0.93;;;10.70;99.90;;;;;;5085055;28;20200;-50
2023/10/14 11:49:11;;;;;;;4.87;0.80;;;10.80;99.90;;;;;;5055032;28;22953;-45
2023/10/14 11:51:40;;;;;;;5.77;1.20;;;10.80;99.90;;;;;;5082771;28;20210;-51
2023/10/14 11:54:08;;;;;;;6.43;1.83;;;11.00;99.90;;;;;;5074894;28;20656;-45
2023/10/14 11:56:36;;;;;;;6.33;1.57;;;11.10;99.90;;;;;;5083029;28;20298;-50
2023/10/14 11:59:04;;;;;;;7.17;1.50;;;11.10;99.90;;;;;;5074650;28;20855;-44
2023/10/14 12:01:34;;;;;;;5.27;0.90;;;11.30;99.90;;;;;;5082958;28;20214;-51
2023/10/14 12:04:01;;;;;;;3.23;0.70;;;11.40;99.90;;;;;;5082357;28;20205;-45
2023/10/14 12:06:34;;;;;;;3.90;0.90;;;11.50;99.90;;;;;;5058698;28;20210;-51
2023/10/14 12:09:05;;;;;;;3.10;1.03;;;11.60;99.90;;;;;;5076580;28;20279;-45
2023/10/14 12:11:39;;;;;;;3.73;0.80;;;11.70;99.90;;;;;;5089185;28;20702;-51
2023/10/14 12:14:07;;;;;;;6.47;1.00;;;11.60;99.90;;;;;;5082121;28;20202;-51
2023/10/14 12:16:34;;;;;;;4.60;0.80;;;11.60;99.90;;;;;;5085942;28;20193;-48
2023/10/14 12:19:01;;;;;;;2.97;0.80;;;11.70;99.90;;;;;;5093684;28;20193;-47
2023/10/14 12:21:29;;;;;;;3.23;0.83;;;11.70;99.90;;;;;;5071828;28;20278;-45
2023/10/14 12:24:01;;;;;;;4.00;1.13;;;11.80;99.90;;;;;;5079805;28;20237;-45
2023/10/14 12:26:30;;;;;;;3.43;0.80;;;11.80;99.90;;;;;;5063941;28;20197;-48
2023/10/14 12:28:57;;;;;;;3.43;0.70;;;12.00;99.90;;;;;;5090365;28;20206;-44
2023/10/14 12:31:27;;;;;;;3.80;0.97;;;12.10;99.90;;;;;;5081547;28;20214;-46
2023/10/14 12:33:54;;;;;;;3.90;0.80;;;12.20;99.90;;;;;;5087583;28;20556;-46
2023/10/14 12:36:22;;;;;;;8.13;1.07;;;12.40;99.90;;;;;;5071989;28;20937;-46
2023/10/14 12:38:50;;;;;;;8.27;0.87;;;12.50;99.90;;;;;;5085933;28;20709;-47
2023/10/14 12:41:21;;;;;;;6.13;1.70;;;12.60;99.90;;;;;;5079118;28;20291;-48
2023/10/14 12:43:51;;;;;;;5.80;1.27;;;12.50;99.90;;;;;;5087724;28;20204;-48
2023/10/14 12:46:20;;;;;;;2.47;1.17;;;12.10;99.90;;;;;;5074671;28;20208;-47
2023/10/14 12:48:50;;;;;;;4.87;1.43;;;11.40;99.90;;;;;;5087705;28;20194;-44
2023/10/14 12:51:25;;;;;;;6.10;0.90;;;10.90;99.90;;;;;;5073151;28;20328;-46
2023/10/14 12:53:57;;;;;;;4.87;1.20;;;10.70;99.90;;;;;;5080402;28;20190;-48
2023/10/14 12:56:26;;;;;;;3.70;0.80;;;10.50;99.90;;;;;;5080893;28;20296;-44
2023/10/14 12:58:57;;;;;;;3.87;0.77;;;10.40;99.90;;;;;;5093484;28;20229;-51
2023/10/14 13:01:24;;;;;;;6.33;1.20;;;10.30;99.90;;;;;;5070826;28;20216;-48
2023/10/14 13:03:52;;;;;;;3.67;0.80;;;10.20;99.90;;;;;;5089394;28;20283;-44
2023/10/14 13:06:22;;;;;;;3.33;0.90;;;10.20;99.90;;;;;;5071067;28;20194;-50